createdAt,value
2023-02-23T00:01:44.801Z,18.23
2023-02-23T00:04:11.539Z,21.25
2023-02-23T00:06:38.865Z,21.42
2023-02-23T00:09:06.477Z,25.30
2023-02-23T00:11:33.196Z,25.15
2023-02-23T00:13:59.906Z,18.38
2023-02-23T00:16:26.793Z,25.00
2023-02-23T00:18:58.263Z,21.63
2023-02-23T00:21:27.575Z,21.63
2023-02-23T00:23:55.858Z,23.33
2023-02-23T00:26:24.669Z,24.75
2023-02-23T00:28:53.880Z,20.13
2023-02-23T00:31:21.775Z,19.60
2023-02-23T00:33:48.523Z,23.10
2023-02-23T00:36:16.590Z,24.10
2023-02-23T00:38:43.308Z,22.08
2023-02-23T00:41:14.110Z,21.65
2023-02-23T00:43:42.091Z,21.50
2023-02-23T00:46:08.864Z,23.05
2023-02-23T00:48:35.842Z,23.70
2023-02-23T00:51:04.688Z,20.25
2023-02-23T00:53:32.800Z,19.98
2023-02-23T00:55:59.613Z,20.13
2023-02-23T00:58:27.420Z,22.80
2023-02-23T01:00:54.602Z,28.35
2023-02-23T01:03:21.461Z,19.05
2023-02-23T01:05:48.331Z,22.35
2023-02-23T01:08:15.342Z,18.55
2023-02-23T01:10:44.292Z,20.33
2023-02-23T01:13:11.296Z,19.70
2023-02-23T01:15:42.211Z,25.63
2023-02-23T01:18:09.150Z,24.58
2023-02-23T01:20:36.523Z,22.38
2023-02-23T01:23:04.475Z,18.73
2023-02-23T01:25:32.667Z,24.60
2023-02-23T01:28:00.893Z,24.45
2023-02-23T01:30:27.613Z,21.90
2023-02-23T01:32:54.340Z,23.83
2023-02-23T01:35:21.066Z,20.85
2023-02-23T01:37:47.768Z,25.73
2023-02-23T01:40:16.269Z,21.15
2023-02-23T01:42:45.868Z,24.00
2023-02-23T01:45:23.660Z,22.10
2023-02-23T01:47:52.608Z,20.42
2023-02-23T01:50:19.623Z,23.05
2023-02-23T01:52:50.428Z,23.52
2023-02-23T01:55:19.687Z,23.88
2023-02-23T01:57:46.638Z,20.50
2023-02-23T02:00:14.122Z,23.98
2023-02-23T02:02:42.237Z,22.23
2023-02-23T02:05:09.428Z,24.10
2023-02-23T02:07:37.123Z,18.67
2023-02-23T02:10:04.516Z,17.67
2023-02-23T02:12:31.278Z,27.55
2023-02-23T02:14:59.912Z,18.58
2023-02-23T02:17:36.567Z,20.88
2023-02-23T02:20:37.386Z,22.08
2023-02-23T02:23:45.567Z,25.13
2023-02-23T02:26:22.592Z,22.00
2023-02-23T02:29:19.627Z,24.50
2023-02-23T02:32:12.690Z,26.65
2023-02-23T02:35:36.623Z,23.95
2023-02-23T02:38:25.997Z,20.13
2023-02-23T02:40:58.856Z,21.35
2023-02-23T02:43:37.563Z,23.33
2023-02-23T02:46:11.111Z,20.85
2023-02-23T02:48:41.972Z,22.42
2023-02-23T02:51:13.548Z,22.30
2023-02-23T02:53:48.430Z,22.58
2023-02-23T02:56:19.622Z,25.25
2023-02-23T02:58:47.260Z,22.80
2023-02-23T03:01:15.809Z,25.13
2023-02-23T03:03:45.015Z,24.30
2023-02-23T03:06:11.822Z,24.67
2023-02-23T03:08:47.929Z,22.00
2023-02-23T03:11:16.002Z,23.20
2023-02-23T03:13:52.359Z,22.45
2023-02-23T03:16:26.998Z,25.42
2023-02-23T03:19:08.546Z,30.50
2023-02-23T03:21:44.429Z,19.13
2023-02-23T03:24:21.479Z,22.48
2023-02-23T03:26:52.701Z,23.33
2023-02-23T03:29:25.414Z,25.30
2023-02-23T03:32:01.853Z,27.83
2023-02-23T03:34:33.228Z,22.80
2023-02-23T03:37:08.119Z,30.58
2023-02-23T03:39:40.665Z,27.02
2023-02-23T03:42:11.786Z,22.02
2023-02-23T03:44:42.196Z,23.25
2023-02-23T03:47:12.255Z,26.75
2023-02-23T03:49:40.679Z,23.65
2023-02-23T03:52:13.460Z,24.60
2023-02-23T03:54:47.747Z,23.98
2023-02-23T03:57:18.804Z,26.50
2023-02-23T03:59:52.228Z,24.27
2023-02-23T04:02:20.862Z,26.05
2023-02-23T04:04:49.177Z,26.98
2023-02-23T04:07:18.443Z,26.98
2023-02-23T04:09:46.602Z,22.50
2023-02-23T04:12:18.037Z,24.27
2023-02-23T04:14:51.500Z,22.85
2023-02-23T04:17:18.888Z,24.17
2023-02-23T04:19:49.642Z,28.23
2023-02-23T04:22:16.355Z,25.30
2023-02-23T04:24:43.105Z,24.02
2023-02-23T04:27:11.120Z,35.08
2023-02-23T04:29:37.807Z,29.58
2023-02-23T04:32:05.017Z,25.63
2023-02-23T04:34:31.763Z,27.42
2023-02-23T04:36:58.450Z,27.33
2023-02-23T04:39:25.209Z,28.45
2023-02-23T04:41:51.907Z,26.13
2023-02-23T04:44:20.235Z,25.45
2023-02-23T04:46:47.121Z,26.65
2023-02-23T04:49:13.834Z,22.83
2023-02-23T04:51:40.616Z,23.60
2023-02-23T04:54:07.377Z,26.88
2023-02-23T04:56:34.074Z,23.60
2023-02-23T04:59:01.125Z,24.92
2023-02-23T05:01:29.190Z,23.08
2023-02-23T05:03:55.908Z,24.45
2023-02-23T05:06:22.640Z,27.10
2023-02-23T05:08:49.360Z,25.60
2023-02-23T05:11:16.336Z,25.45
2023-02-23T05:13:43.095Z,27.17
2023-02-23T05:16:10.025Z,25.15
2023-02-23T05:18:38.090Z,24.38
2023-02-23T05:21:08.254Z,26.02
2023-02-23T05:23:35.850Z,26.42
2023-02-23T05:26:04.751Z,22.45
2023-02-23T05:28:31.727Z,30.90
2023-02-23T05:30:58.506Z,29.45
2023-02-23T05:33:25.478Z,23.20
2023-02-23T05:35:53.652Z,29.15
2023-02-23T05:38:20.364Z,28.70
2023-02-23T05:40:47.132Z,23.00
2023-02-23T05:43:14.117Z,27.27
2023-02-23T05:45:40.912Z,26.38
2023-02-23T05:48:08.037Z,23.85
2023-02-23T05:50:35.025Z,23.15
2023-02-23T05:53:03.769Z,20.55
2023-02-23T05:55:30.868Z,28.52
2023-02-23T05:57:57.632Z,27.00
2023-02-23T06:00:24.493Z,23.98
2023-02-23T06:02:51.254Z,24.02
2023-02-23T06:05:18.241Z,22.95
2023-02-23T06:07:44.987Z,20.58
2023-02-23T06:10:13.446Z,24.75
2023-02-23T06:12:40.195Z,21.77
2023-02-23T06:15:07.755Z,25.92
2023-02-23T06:17:34.864Z,24.08
2023-02-23T06:20:01.760Z,24.15
2023-02-23T06:22:28.534Z,23.15
2023-02-23T06:24:55.213Z,24.20
2023-02-23T06:27:23.320Z,28.98
2023-02-23T06:29:49.997Z,30.23
2023-02-23T06:32:16.762Z,24.17
2023-02-23T06:34:43.544Z,24.58
2023-02-23T06:37:10.264Z,26.48
2023-02-23T06:39:36.961Z,23.67
2023-02-23T06:42:03.851Z,27.25
2023-02-23T06:44:31.907Z,25.02
2023-02-23T06:46:58.607Z,26.92
2023-02-23T06:49:25.320Z,30.67
2023-02-23T06:51:52.025Z,29.13
2023-02-23T06:54:18.707Z,23.27
2023-02-23T06:56:45.429Z,26.42
2023-02-23T06:59:12.140Z,24.77
2023-02-23T07:01:40.297Z,26.30
2023-02-23T07:04:07.111Z,28.15
2023-02-23T07:06:33.820Z,26.70
2023-02-23T07:09:00.544Z,25.73
2023-02-23T07:11:27.237Z,29.08
2023-02-23T07:13:53.942Z,20.80
2023-02-23T07:16:20.767Z,27.33
2023-02-23T07:18:48.860Z,24.55
2023-02-23T07:21:15.556Z,27.38
2023-02-23T07:23:42.288Z,26.15
2023-02-23T07:26:08.997Z,26.02
2023-02-23T07:28:35.743Z,24.58
2023-02-23T07:31:02.465Z,24.02
2023-02-23T07:33:29.159Z,24.40
2023-02-23T07:35:57.222Z,31.95
2023-02-23T07:38:23.929Z,28.33
2023-02-23T07:40:50.956Z,30.65
2023-02-23T07:43:17.819Z,31.10
2023-02-23T07:45:46.503Z,26.02
2023-02-23T07:48:13.504Z,26.77
2023-02-23T07:50:40.615Z,27.85
2023-02-23T07:53:08.718Z,26.23
2023-02-23T07:55:35.575Z,27.45
2023-02-23T07:58:02.364Z,26.20
2023-02-23T08:00:29.081Z,26.17
2023-02-23T08:02:55.830Z,22.92
2023-02-23T08:05:23.064Z,23.70
2023-02-23T08:07:50.849Z,30.77
2023-02-23T08:10:19.221Z,28.48
2023-02-23T08:12:46.268Z,28.55
2023-02-23T08:15:13.035Z,29.00
2023-02-23T08:17:40.694Z,24.35
2023-02-23T08:20:09.079Z,27.63
2023-02-23T08:22:47.366Z,24.58
2023-02-23T08:25:15.780Z,30.95
2023-02-23T08:27:43.874Z,24.30
2023-02-23T08:30:12.329Z,27.60
2023-02-23T08:32:39.118Z,26.88
2023-02-23T08:35:07.151Z,24.45
2023-02-23T08:37:33.989Z,29.27
2023-02-23T08:40:00.729Z,27.83
2023-02-23T08:42:27.638Z,28.85
2023-02-23T08:44:55.698Z,30.02
2023-02-23T08:47:22.688Z,32.70
2023-02-23T08:49:49.787Z,29.20
2023-02-23T08:52:16.600Z,26.77
2023-02-23T08:54:43.286Z,28.92
2023-02-23T08:57:12.481Z,27.02
2023-02-23T08:59:39.355Z,31.27
2023-02-23T09:02:11.619Z,33.10
2023-02-23T09:04:38.484Z,32.03
2023-02-23T09:07:05.345Z,30.70
2023-02-23T09:09:32.070Z,30.60
2023-02-23T09:11:59.767Z,30.05
2023-02-23T09:14:26.883Z,32.00
2023-02-23T09:16:53.716Z,33.03
2023-02-23T09:19:21.787Z,28.77
2023-02-23T09:21:48.513Z,31.85
2023-02-23T09:24:15.282Z,29.63
2023-02-23T09:26:42.364Z,27.55
2023-02-23T09:29:09.934Z,30.67
2023-02-23T09:31:38.330Z,31.77
2023-02-23T09:34:05.193Z,27.48
2023-02-23T09:36:33.236Z,33.40
2023-02-23T09:39:00.206Z,30.10
2023-02-23T09:41:49.611Z,27.98
2023-02-23T09:44:29.306Z,22.17
2023-02-23T09:47:05.884Z,30.23
2023-02-23T09:49:36.606Z,30.27
2023-02-23T09:52:09.663Z,31.15
2023-02-23T09:57:10.886Z,29.17
2023-02-23T09:59:39.180Z,33.13
2023-02-23T10:02:16.796Z,28.25
2023-02-23T10:04:46.576Z,27.63
2023-02-23T10:07:19.680Z,26.67
2023-02-23T10:10:02.546Z,22.45
2023-02-23T10:12:35.106Z,25.23
2023-02-23T10:15:14.606Z,28.33
2023-02-23T10:17:48.898Z,23.25
2023-02-23T10:20:24.826Z,25.70
2023-02-23T10:22:56.880Z,22.88
2023-02-23T10:25:26.727Z,26.67
2023-02-23T10:27:56.027Z,26.77
2023-02-23T10:30:24.873Z,27.83
2023-02-23T10:33:00.948Z,23.67
2023-02-23T10:35:29.268Z,24.52
2023-02-23T10:37:59.715Z,21.00
2023-02-23T10:40:30.478Z,26.90
2023-02-23T10:42:58.286Z,25.83
2023-02-23T10:45:26.205Z,24.75
2023-02-23T10:47:58.206Z,25.60
2023-02-23T10:50:25.281Z,22.33
2023-02-23T10:52:54.796Z,23.90
2023-02-23T10:55:25.240Z,24.45
2023-02-23T10:58:02.396Z,26.63
2023-02-23T11:00:30.651Z,27.75
2023-02-23T11:02:58.924Z,27.42
2023-02-23T11:05:35.751Z,24.52
2023-02-23T11:08:11.032Z,19.70
2023-02-23T11:10:39.582Z,24.15
2023-02-23T11:13:06.297Z,16.40
2023-02-23T11:15:50.445Z,17.67
2023-02-23T11:18:21.584Z,16.83
2023-02-23T11:20:49.303Z,17.10
2023-02-23T11:23:22.322Z,16.52
2023-02-23T11:25:53.552Z,15.65
2023-02-23T11:28:24.782Z,12.68
2023-02-23T11:30:51.877Z,15.88
2023-02-23T11:33:23.830Z,16.92
2023-02-23T11:35:58.880Z,15.68
2023-02-23T11:38:27.288Z,12.32
2023-02-23T11:41:01.347Z,17.25
2023-02-23T11:45:57.566Z,12.90
2023-02-23T11:48:28.585Z,16.23
2023-02-23T11:50:56.221Z,12.52
2023-02-23T11:53:29.952Z,15.85
2023-02-23T11:56:02.318Z,18.50
2023-02-23T11:58:35.009Z,14.05
2023-02-23T12:01:05.470Z,13.90
2023-02-23T12:03:34.100Z,16.33
2023-02-23T12:06:00.800Z,17.73
2023-02-23T12:08:37.553Z,14.90
2023-02-23T12:11:10.346Z,14.32
2023-02-23T12:13:42.814Z,15.15
2023-02-23T12:16:17.589Z,14.05
2023-02-23T12:18:49.803Z,14.57
2023-02-23T12:21:27.555Z,20.15
2023-02-23T12:24:04.293Z,15.85
2023-02-23T12:26:36.914Z,18.75
2023-02-23T12:29:10.152Z,12.25
2023-02-23T12:31:43.946Z,13.33
2023-02-23T12:34:16.851Z,12.38
2023-02-23T12:36:47.360Z,13.15
2023-02-23T12:39:19.936Z,10.02
2023-02-23T12:41:56.733Z,13.95
2023-02-23T12:44:33.816Z,15.93
2023-02-23T12:47:07.507Z,12.23
2023-02-23T12:49:37.995Z,11.45
2023-02-23T12:52:09.814Z,11.65
2023-02-23T12:54:36.796Z,9.75
2023-02-23T12:57:13.899Z,11.88
2023-02-23T13:00:01.965Z,13.43
2023-02-23T13:02:33.590Z,12.50
2023-02-23T13:05:13.598Z,10.02
2023-02-23T13:07:46.184Z,14.73
2023-02-23T13:10:22.399Z,9.90
2023-02-23T13:12:58.159Z,10.20
2023-02-23T13:15:38.061Z,11.75
2023-02-23T13:18:14.817Z,11.02
2023-02-23T13:20:47.475Z,8.65
2023-02-23T13:23:25.276Z,10.43
2023-02-23T13:25:57.645Z,8.88
2023-02-23T13:28:36.436Z,9.15
2023-02-23T13:31:05.900Z,11.63
2023-02-23T13:33:44.062Z,7.75
2023-02-23T13:36:11.946Z,9.73
2023-02-23T13:38:43.892Z,8.38
2023-02-23T13:41:21.313Z,8.55
2023-02-23T13:43:59.058Z,8.02
2023-02-23T13:46:31.975Z,11.32
2023-02-23T13:49:04.026Z,7.97
2023-02-23T13:51:39.359Z,7.28
2023-02-23T13:54:21.856Z,7.93
2023-02-23T13:56:51.410Z,9.68
2023-02-23T13:59:21.949Z,7.15
2023-02-23T14:01:51.361Z,8.23
2023-02-23T14:04:23.278Z,7.55
2023-02-23T14:06:55.500Z,9.05
2023-02-23T14:09:28.982Z,9.63
2023-02-23T14:12:02.837Z,9.02
2023-02-23T14:14:42.377Z,9.05
2023-02-23T14:17:10.949Z,8.15
2023-02-23T14:19:42.244Z,9.00
2023-02-23T14:22:12.355Z,12.18
2023-02-23T14:24:39.159Z,8.38
2023-02-23T14:27:38.536Z,11.32
2023-02-23T14:30:15.971Z,10.52
2023-02-23T14:32:44.508Z,8.75
2023-02-23T14:35:36.989Z,9.27
2023-02-23T14:38:05.416Z,10.77
2023-02-23T14:40:38.282Z,9.05
2023-02-23T14:43:48.800Z,10.05
2023-02-23T14:46:23.490Z,11.63
2023-02-23T14:48:59.417Z,8.52
2023-02-23T14:51:36.862Z,12.10
2023-02-23T14:54:11.291Z,9.90
2023-02-23T14:56:46.830Z,8.80
2023-02-23T14:59:19.048Z,10.70
2023-02-23T15:01:47.709Z,11.32
2023-02-23T15:04:18.070Z,10.38
2023-02-23T15:06:44.923Z,9.45
2023-02-23T15:09:17.792Z,11.48
2023-02-23T15:11:47.922Z,11.40
2023-02-23T15:14:27.011Z,12.07
2023-02-23T15:16:56.763Z,10.43
2023-02-23T15:19:33.234Z,10.80
2023-02-23T15:22:01.640Z,12.75
2023-02-23T15:24:32.141Z,9.38
2023-02-23T15:26:59.079Z,11.65
2023-02-23T15:29:31.230Z,11.07
2023-02-23T15:32:12.678Z,12.43
2023-02-23T15:34:39.573Z,11.82
2023-02-23T15:37:12.994Z,10.32
2023-02-23T15:39:45.610Z,8.95
2023-02-23T15:42:16.528Z,9.20
2023-02-23T15:44:45.147Z,10.55
2023-02-23T15:47:21.878Z,9.70
2023-02-23T15:49:48.918Z,10.38
2023-02-23T15:52:17.872Z,14.10
2023-02-23T15:54:48.769Z,8.95
2023-02-23T15:57:19.872Z,10.48
2023-02-23T15:59:47.820Z,15.30
2023-02-23T16:02:17.813Z,11.40
2023-02-23T16:04:45.364Z,11.75
2023-02-23T16:07:17.680Z,11.20
2023-02-23T16:09:50.316Z,9.27
2023-02-23T16:12:21.138Z,10.50
2023-02-23T16:14:53.434Z,11.07
2023-02-23T16:17:26.763Z,10.50
2023-02-23T16:19:56.768Z,9.65
2023-02-23T16:22:25.983Z,13.85
2023-02-23T16:25:02.214Z,11.73
2023-02-23T16:27:29.868Z,10.32
2023-02-23T16:29:59.706Z,14.38
2023-02-23T16:32:35.390Z,11.35
2023-02-23T16:35:08.491Z,8.05
2023-02-23T16:37:50.438Z,10.48
2023-02-23T16:40:17.682Z,10.13
2023-02-23T16:42:44.422Z,10.00
2023-02-23T16:45:14.972Z,9.10
2023-02-23T16:47:44.504Z,11.98
2023-02-23T16:50:19.797Z,11.90
2023-02-23T16:52:48.712Z,9.68
2023-02-23T16:55:16.468Z,10.38
2023-02-23T16:57:43.531Z,12.60
2023-02-23T17:00:22.339Z,10.57
2023-02-23T17:02:51.277Z,9.05
2023-02-23T17:05:20.621Z,9.20
2023-02-23T17:07:47.656Z,7.88
2023-02-23T17:10:17.593Z,9.40
2023-02-23T17:12:44.291Z,13.30
2023-02-23T17:15:17.336Z,11.50
2023-02-23T17:17:44.554Z,11.80
2023-02-23T17:20:13.221Z,8.45
2023-02-23T17:22:40.035Z,11.32
2023-02-23T17:25:07.200Z,12.27
2023-02-23T17:27:33.885Z,11.02
2023-02-23T17:30:00.590Z,9.52
2023-02-23T17:32:27.478Z,12.43
2023-02-23T17:34:54.319Z,9.73
2023-02-23T17:37:22.399Z,10.73
2023-02-23T17:39:49.166Z,9.80
2023-02-23T17:42:15.945Z,11.88
2023-02-23T17:44:43.011Z,9.43
2023-02-23T17:47:10.140Z,11.70
2023-02-23T17:49:37.083Z,9.63
2023-02-23T17:52:03.942Z,10.32
2023-02-23T17:54:32.033Z,8.88
2023-02-23T17:56:58.752Z,8.68
2023-02-23T17:59:25.553Z,10.82
2023-02-23T18:01:52.345Z,8.23
2023-02-23T18:04:19.070Z,9.85
2023-02-23T18:06:45.802Z,13.32
2023-02-23T18:09:12.504Z,12.50
2023-02-23T18:11:40.626Z,10.82
2023-02-23T18:14:07.389Z,10.48
2023-02-23T18:16:34.449Z,11.23
2023-02-23T18:19:01.307Z,14.52
2023-02-23T18:21:28.405Z,15.18
2023-02-23T18:23:55.722Z,10.35
2023-02-23T18:26:24.856Z,9.88
2023-02-23T18:28:54.488Z,11.68
2023-02-23T18:31:23.633Z,11.77
2023-02-23T18:33:51.269Z,13.23
2023-02-23T18:36:21.787Z,13.10
2023-02-23T18:38:49.330Z,12.88
2023-02-23T18:41:16.638Z,12.00
2023-02-23T18:43:43.710Z,8.55
2023-02-23T18:46:13.889Z,10.88
2023-02-23T18:48:42.015Z,11.25
2023-02-23T18:51:09.544Z,11.85
2023-02-23T18:53:36.920Z,12.55
2023-02-23T18:56:05.043Z,14.32
2023-02-23T18:58:32.107Z,10.68
2023-02-23T19:00:59.067Z,11.82
2023-02-23T19:03:28.120Z,9.40
2023-02-23T19:05:55.114Z,9.65
2023-02-23T19:08:22.412Z,10.52
2023-02-23T19:10:49.746Z,11.18
2023-02-23T19:13:16.753Z,9.02
2023-02-23T19:15:43.662Z,11.25
2023-02-23T19:18:10.547Z,9.98
2023-02-23T19:20:39.638Z,10.50
2023-02-23T19:23:06.488Z,10.80
2023-02-23T19:25:33.412Z,11.18
2023-02-23T19:28:00.294Z,10.38
2023-02-23T19:30:27.245Z,8.05
2023-02-23T19:32:54.234Z,10.95
2023-02-23T19:35:21.292Z,8.93
2023-02-23T19:37:51.158Z,8.63
2023-02-23T19:40:20.273Z,10.38
2023-02-23T19:42:47.167Z,11.45
2023-02-23T19:45:14.345Z,9.65
2023-02-23T19:47:41.350Z,7.10
2023-02-23T19:50:09.456Z,10.15
2023-02-23T19:52:37.634Z,11.32
2023-02-23T19:55:07.545Z,13.60
2023-02-23T19:57:35.441Z,12.13
2023-02-23T20:00:02.320Z,13.18
2023-02-23T20:02:29.295Z,12.43
2023-02-23T20:04:57.852Z,11.27
2023-02-23T20:07:25.065Z,12.98
2023-02-23T20:09:52.833Z,11.18
2023-02-23T20:12:21.030Z,15.15
2023-02-23T20:14:47.923Z,11.10
2023-02-23T20:17:14.869Z,13.25
2023-02-23T20:19:41.869Z,11.30
2023-02-23T20:22:08.818Z,13.15
2023-02-23T20:24:36.292Z,14.27
2023-02-23T20:27:03.520Z,13.10
2023-02-23T20:29:31.624Z,9.73
2023-02-23T20:31:58.430Z,12.20
2023-02-23T20:34:25.876Z,10.45
2023-02-23T20:36:52.812Z,11.13
2023-02-23T20:39:19.718Z,14.00
2023-02-23T20:41:46.848Z,11.38
2023-02-23T20:44:15.473Z,13.02
2023-02-23T20:46:43.753Z,11.23
2023-02-23T20:49:11.278Z,11.38
2023-02-23T20:51:38.965Z,10.18
2023-02-23T20:54:06.265Z,10.38
2023-02-23T20:56:33.017Z,12.80
2023-02-23T20:59:00.004Z,14.10
2023-02-23T21:01:26.958Z,13.00
2023-02-23T21:03:56.511Z,12.73
2023-02-23T21:06:24.706Z,9.75
2023-02-23T21:08:52.076Z,11.85
2023-02-23T21:11:19.934Z,13.77
2023-02-23T21:13:46.955Z,14.18
2023-02-23T21:16:15.671Z,12.75
2023-02-23T21:18:42.582Z,11.25
2023-02-23T21:21:11.404Z,13.23
2023-02-23T21:23:39.615Z,11.25
2023-02-23T21:26:06.420Z,11.60
2023-02-23T21:28:33.314Z,13.68
2023-02-23T21:31:00.066Z,15.45
2023-02-23T21:33:26.825Z,13.38
2023-02-23T21:35:53.524Z,12.82
2023-02-23T21:38:21.644Z,14.32
2023-02-23T21:40:48.957Z,13.95
2023-02-23T21:43:15.658Z,11.63
2023-02-23T21:45:42.468Z,15.13
2023-02-23T21:48:09.508Z,9.95
2023-02-23T21:50:36.212Z,11.18
2023-02-23T21:53:02.945Z,13.73
2023-02-23T21:55:31.265Z,12.73
2023-02-23T21:57:58.016Z,11.82
2023-02-23T22:00:24.865Z,12.35
2023-02-23T22:03:13.563Z,14.90
2023-02-23T22:05:40.347Z,14.93
2023-02-23T22:08:07.077Z,11.93
2023-02-23T22:10:35.142Z,12.48
2023-02-23T22:13:01.852Z,12.63
2023-02-23T22:15:28.847Z,9.48
2023-02-23T22:17:56.117Z,11.60
2023-02-23T22:20:22.975Z,13.25
2023-02-23T22:22:49.696Z,10.00
2023-02-23T22:25:21.372Z,13.25
2023-02-23T22:27:52.100Z,12.80
2023-02-23T22:30:18.953Z,12.57
2023-02-23T22:32:45.849Z,13.15
2023-02-23T22:35:12.822Z,13.48
2023-02-23T22:37:39.525Z,10.85
2023-02-23T22:40:07.524Z,11.98
2023-02-23T22:42:34.248Z,14.40
2023-02-23T22:45:02.369Z,11.93
2023-02-23T22:47:29.125Z,10.25
2023-02-23T22:49:55.861Z,13.90
2023-02-23T22:52:22.614Z,16.13
2023-02-23T22:54:49.320Z,16.33
2023-02-23T22:57:16.090Z,10.30
2023-02-23T22:59:42.810Z,13.52
2023-02-23T23:02:10.870Z,12.57
2023-02-23T23:04:37.630Z,11.57
2023-02-23T23:07:04.407Z,13.63
2023-02-23T23:09:31.134Z,10.98
2023-02-23T23:11:57.874Z,13.30
2023-02-23T23:14:24.608Z,10.57
2023-02-23T23:16:51.364Z,15.05
2023-02-23T23:19:21.783Z,13.43
2023-02-23T23:21:48.483Z,10.50
2023-02-23T23:24:15.364Z,13.25
2023-02-23T23:26:42.533Z,13.48
2023-02-23T23:29:11.192Z,13.70
2023-02-23T23:31:39.322Z,11.18
2023-02-23T23:34:08.291Z,14.63
2023-02-23T23:36:38.655Z,10.82
2023-02-23T23:39:05.444Z,13.23
2023-02-23T23:41:32.500Z,14.77
2023-02-23T23:43:59.723Z,13.55
2023-02-23T23:46:28.618Z,11.90
2023-02-23T23:48:57.423Z,11.75
2023-02-23T23:51:25.708Z,12.32
2023-02-23T23:53:54.713Z,15.55
2023-02-23T23:56:21.485Z,17.48
2023-02-23T23:58:48.504Z,15.38
